createdAt,value
2023-04-28T00:00:16.440Z,0.52
2023-04-28T00:01:16.382Z,0.51
2023-04-28T00:02:16.402Z,0.51
2023-04-28T00:03:16.469Z,0.52
2023-04-28T00:04:17.051Z,0.53
2023-04-28T00:05:16.590Z,0.54
2023-04-28T00:06:16.424Z,0.54
2023-04-28T00:07:16.335Z,0.55
2023-04-28T00:08:16.433Z,0.55
2023-04-28T00:09:16.293Z,0.53
2023-04-28T00:10:16.326Z,0.50
2023-04-28T00:11:16.281Z,0.48
2023-04-28T00:12:16.233Z,0.49
2023-04-28T00:13:16.272Z,0.51
2023-04-28T00:14:16.311Z,0.53
2023-04-28T00:15:16.213Z,0.53
2023-04-28T00:16:16.214Z,0.52
2023-04-28T00:17:16.329Z,0.50
2023-04-28T00:18:16.198Z,0.48
2023-04-28T00:19:16.172Z,0.45
2023-04-28T00:20:16.162Z,0.42
2023-04-28T00:21:16.191Z,0.40
2023-04-28T00:22:16.284Z,0.38
2023-04-28T00:23:16.148Z,0.37
2023-04-28T00:24:16.245Z,0.36
2023-04-28T00:25:16.102Z,0.35
2023-04-28T00:26:16.066Z,0.32
2023-04-28T00:27:16.051Z,0.31
2023-04-28T00:28:30.457Z,0.30
2023-04-28T00:29:16.037Z,0.30
2023-04-28T00:30:15.995Z,0.30
2023-04-28T00:31:16.036Z,0.29
2023-04-28T00:32:15.956Z,0.27
2023-04-28T00:33:15.995Z,0.25
2023-04-28T00:34:16.282Z,0.23
2023-04-28T00:35:15.936Z,0.23
2023-04-28T00:36:15.928Z,0.23
2023-04-28T00:37:15.932Z,0.23
2023-04-28T00:38:15.882Z,0.21
2023-04-28T00:39:15.867Z,0.16
2023-04-28T00:40:15.874Z,0.11
2023-04-28T00:41:15.886Z,0.08
2023-04-28T00:42:15.970Z,0.06
2023-04-28T00:43:15.853Z,0.05
2023-04-28T00:44:15.966Z,0.05
2023-04-28T00:45:15.831Z,0.05
2023-04-28T00:46:15.890Z,0.06
2023-04-28T00:47:15.768Z,0.09
2023-04-28T00:48:15.818Z,0.13
2023-04-28T00:49:15.750Z,0.18
2023-04-28T00:50:15.733Z,0.24
2023-04-28T00:51:15.715Z,0.29
2023-04-28T00:52:15.680Z,0.32
2023-04-28T00:53:15.702Z,0.34
2023-04-28T00:54:15.865Z,0.36
2023-04-28T00:55:15.670Z,0.35
2023-04-28T00:56:15.666Z,0.32
2023-04-28T00:57:15.706Z,0.28
2023-04-28T00:58:15.661Z,0.24
2023-04-28T00:59:15.743Z,0.22
2023-04-28T01:00:15.597Z,0.20
2023-04-28T01:01:15.704Z,0.18
2023-04-28T01:02:15.613Z,0.16
2023-04-28T01:03:15.664Z,0.14
2023-04-28T01:04:15.814Z,0.13
2023-04-28T01:05:15.516Z,0.15
2023-04-28T01:06:15.496Z,0.18
2023-04-28T01:07:15.525Z,0.22
2023-04-28T01:08:15.502Z,0.23
2023-04-28T01:09:15.484Z,0.22
2023-04-28T01:10:15.464Z,0.20
2023-04-28T01:11:15.493Z,0.20
2023-04-28T01:12:15.539Z,0.21
2023-04-28T01:13:15.496Z,0.23
2023-04-28T01:14:15.779Z,0.25
2023-04-28T01:15:15.503Z,0.28
2023-04-28T01:16:15.516Z,0.30
2023-04-28T01:17:15.444Z,0.31
2023-04-28T01:18:15.358Z,0.33
2023-04-28T01:19:15.457Z,0.36
2023-04-28T01:20:15.353Z,0.39
2023-04-28T01:21:15.347Z,0.41
2023-04-28T01:22:15.365Z,0.41
2023-04-28T01:23:15.282Z,0.39
2023-04-28T01:24:15.466Z,0.35
2023-04-28T01:25:15.297Z,0.33
2023-04-28T01:26:15.276Z,0.32
2023-04-28T01:27:15.250Z,0.33
2023-04-28T01:28:15.229Z,0.36
2023-04-28T01:29:15.241Z,0.40
2023-04-28T01:30:15.209Z,0.44
2023-04-28T01:31:15.238Z,0.47
2023-04-28T01:32:15.197Z,0.50
2023-04-28T01:33:15.178Z,0.52
2023-04-28T01:34:15.372Z,0.53
2023-04-28T01:35:15.154Z,0.54
2023-04-28T01:36:15.150Z,0.54
2023-04-28T01:37:15.158Z,0.54
2023-04-28T01:38:15.131Z,0.52
2023-04-28T01:39:15.088Z,0.50
2023-04-28T01:40:15.090Z,0.48
2023-04-28T01:41:15.105Z,0.44
2023-04-28T01:42:15.034Z,0.40
2023-04-28T01:43:15.053Z,0.37
2023-04-28T01:44:15.301Z,0.34
2023-04-28T01:45:15.009Z,0.32
2023-04-28T01:46:15.044Z,0.30
2023-04-28T01:47:15.002Z,0.28
2023-04-28T01:48:14.945Z,0.27
2023-04-28T01:49:15.105Z,0.25
2023-04-28T01:50:14.913Z,0.24
2023-04-28T01:51:14.921Z,0.23
2023-04-28T01:52:14.968Z,0.22
2023-04-28T01:53:14.875Z,0.20
2023-04-28T01:54:15.119Z,0.17
2023-04-28T01:55:14.947Z,0.14
2023-04-28T01:56:14.849Z,0.11
2023-04-28T01:57:16.633Z,0.11
2023-04-28T01:58:14.805Z,0.13
2023-04-28T01:59:14.828Z,0.16
2023-04-28T02:00:14.821Z,0.18
2023-04-28T02:01:14.872Z,0.20
2023-04-28T02:02:14.764Z,0.20
2023-04-28T02:03:14.996Z,0.20
2023-04-28T02:04:14.856Z,0.18
2023-04-28T02:05:14.742Z,0.16
2023-04-28T02:06:14.746Z,0.13
2023-04-28T02:07:14.707Z,0.10
2023-04-28T02:08:14.710Z,0.08
2023-04-28T02:09:14.687Z,0.07
2023-04-28T02:10:14.638Z,0.05
2023-04-28T02:11:14.642Z,0.05
2023-04-28T02:12:14.612Z,0.05
2023-04-28T02:13:14.606Z,0.07
2023-04-28T02:14:14.768Z,0.11
2023-04-28T02:15:14.650Z,0.15
2023-04-28T02:16:14.596Z,0.17
2023-04-28T02:17:14.555Z,0.18
2023-04-28T02:18:14.565Z,0.20
2023-04-28T02:19:14.564Z,0.23
2023-04-28T02:20:14.525Z,0.27
2023-04-28T02:21:14.521Z,0.30
2023-04-28T02:22:14.529Z,0.32
2023-04-28T02:23:14.503Z,0.33
2023-04-28T02:24:14.794Z,0.32
2023-04-28T02:25:14.456Z,0.30
2023-04-28T02:26:14.441Z,0.28
2023-04-28T02:27:14.438Z,0.28
2023-04-28T02:28:14.444Z,0.29
2023-04-28T02:29:14.421Z,0.32
2023-04-28T02:30:14.374Z,0.34
2023-04-28T02:31:14.418Z,0.37
2023-04-28T02:32:14.372Z,0.37
2023-04-28T02:33:14.384Z,0.38
2023-04-28T02:34:14.512Z,0.39
2023-04-28T02:35:14.355Z,0.40
2023-04-28T02:36:14.334Z,0.42
2023-04-28T02:37:14.293Z,0.43
2023-04-28T02:38:14.351Z,0.42
2023-04-28T02:39:14.315Z,0.40
2023-04-28T02:40:14.230Z,0.39
2023-04-28T02:41:14.252Z,0.37
2023-04-28T02:42:14.223Z,0.37
2023-04-28T02:43:14.204Z,0.39
2023-04-28T02:44:14.361Z,0.43
2023-04-28T02:45:14.173Z,0.48
2023-04-28T02:46:14.199Z,0.52
2023-04-28T02:47:14.174Z,0.57
2023-04-28T02:48:14.145Z,0.61
2023-04-28T02:49:14.163Z,0.64
2023-04-28T02:50:14.272Z,0.66
2023-04-28T02:51:14.250Z,0.66
2023-04-28T02:52:14.098Z,0.67
2023-04-28T02:53:14.089Z,0.70
2023-04-28T02:54:14.189Z,0.71
2023-04-28T02:55:14.103Z,0.72
2023-04-28T02:56:14.034Z,0.73
2023-04-28T02:57:14.057Z,0.74
2023-04-28T02:58:13.999Z,0.76
2023-04-28T02:59:14.017Z,0.78
2023-04-28T03:00:13.966Z,0.79
2023-04-28T03:01:14.019Z,0.79
2023-04-28T03:02:13.974Z,0.79
2023-04-28T03:03:14.147Z,0.79
2023-04-28T03:04:14.127Z,0.81
2023-04-28T03:05:13.922Z,0.83
2023-04-28T03:06:13.914Z,0.86
2023-04-28T03:07:13.907Z,0.90
2023-04-28T03:08:13.935Z,0.95
2023-04-28T03:09:13.891Z,1.02
2023-04-28T03:10:13.855Z,1.10
2023-04-28T03:11:13.863Z,1.16
2023-04-28T03:12:13.832Z,1.21
2023-04-28T03:13:13.828Z,1.25
2023-04-28T03:14:13.950Z,1.29
2023-04-28T03:15:14.189Z,1.32
2023-04-28T03:16:13.799Z,1.34
2023-04-28T03:17:13.786Z,1.33
2023-04-28T03:18:13.738Z,1.32
2023-04-28T03:19:13.720Z,1.30
2023-04-28T03:20:13.739Z,1.29
2023-04-28T03:21:13.714Z,1.27
2023-04-28T03:22:13.685Z,1.26
2023-04-28T03:23:13.721Z,1.24
2023-04-28T03:24:13.889Z,1.23
2023-04-28T03:25:13.674Z,1.22
2023-04-28T03:26:13.636Z,1.20
2023-04-28T03:27:13.618Z,1.17
2023-04-28T03:28:13.615Z,1.14
2023-04-28T03:29:13.606Z,1.10
2023-04-28T03:30:13.604Z,1.08
2023-04-28T03:31:13.585Z,1.06
2023-04-28T03:32:13.612Z,1.04
2023-04-28T03:33:13.556Z,1.02
2023-04-28T03:34:13.616Z,1.01
2023-04-28T03:35:13.526Z,1.03
2023-04-28T03:36:13.523Z,1.04
2023-04-28T03:37:13.486Z,1.05
2023-04-28T03:38:13.467Z,1.07
2023-04-28T03:39:13.483Z,1.08
2023-04-28T03:40:13.491Z,1.10
2023-04-28T03:41:13.472Z,1.12
2023-04-28T03:42:13.442Z,1.14
2023-04-28T03:43:13.432Z,1.16
2023-04-28T03:44:13.463Z,1.20
2023-04-28T03:45:13.412Z,1.25
2023-04-28T03:46:13.404Z,1.30
2023-04-28T03:47:13.398Z,1.35
2023-04-28T03:48:13.397Z,1.41
2023-04-28T03:49:13.336Z,1.47
2023-04-28T03:50:13.318Z,1.52
2023-04-28T03:51:13.321Z,1.55
2023-04-28T03:52:13.340Z,1.59
2023-04-28T03:53:13.332Z,1.62
2023-04-28T03:54:13.411Z,1.64
2023-04-28T03:55:13.269Z,1.65
2023-04-28T03:56:13.269Z,1.67
2023-04-28T03:57:13.245Z,1.71
2023-04-28T03:58:13.222Z,1.74
2023-04-28T03:59:13.270Z,1.76
2023-04-28T04:00:13.197Z,1.77
2023-04-28T04:01:13.219Z,1.77
2023-04-28T04:02:13.188Z,1.78
2023-04-28T04:03:13.281Z,1.78
2023-04-28T04:04:13.362Z,1.80
2023-04-28T04:05:13.300Z,1.82
2023-04-28T04:06:13.125Z,1.82
2023-04-28T04:07:13.121Z,1.83
2023-04-28T04:08:13.075Z,1.84
2023-04-28T04:09:13.064Z,1.86
2023-04-28T04:10:13.074Z,1.88
2023-04-28T04:11:13.060Z,1.90
2023-04-28T04:12:13.067Z,1.92
2023-04-28T04:13:13.076Z,1.94
2023-04-28T04:14:13.106Z,1.97
2023-04-28T04:15:13.025Z,2.00
2023-04-28T04:16:13.033Z,2.03
2023-04-28T04:17:12.970Z,2.07
2023-04-28T04:18:13.060Z,2.10
2023-04-28T04:19:12.946Z,2.13
2023-04-28T04:20:12.988Z,2.15
2023-04-28T04:21:12.923Z,2.16
2023-04-28T04:22:12.927Z,2.17
2023-04-28T04:23:12.900Z,2.19
2023-04-28T04:24:12.953Z,2.22
2023-04-28T04:25:12.909Z,2.27
2023-04-28T04:26:12.905Z,2.32
2023-04-28T04:27:12.925Z,2.36
2023-04-28T04:28:12.851Z,2.39
2023-04-28T04:29:12.925Z,2.41
2023-04-28T04:30:12.867Z,2.43
2023-04-28T04:31:12.901Z,2.46
2023-04-28T04:32:12.845Z,2.48
2023-04-28T04:33:12.798Z,2.50
2023-04-28T04:34:12.964Z,2.54
2023-04-28T04:35:18.916Z,2.61
2023-04-28T04:36:12.880Z,2.68
2023-04-28T04:37:12.772Z,2.76
2023-04-28T04:38:15.488Z,2.84
2023-04-28T04:39:15.471Z,2.90
2023-04-28T04:40:14.685Z,2.95
2023-04-28T04:41:14.962Z,2.99
2023-04-28T04:42:24.090Z,3.03
2023-04-28T04:43:12.647Z,3.06
2023-04-28T04:44:14.183Z,3.09
2023-04-28T04:45:12.629Z,3.10
2023-04-28T04:46:12.636Z,3.12
2023-04-28T04:47:12.676Z,3.14
2023-04-28T04:48:12.648Z,3.16
2023-04-28T04:49:12.583Z,3.17
2023-04-28T04:50:12.583Z,3.18
2023-04-28T04:51:12.625Z,3.19
2023-04-28T04:52:12.546Z,3.19
2023-04-28T04:53:15.497Z,3.20
2023-04-28T04:54:12.519Z,3.21
2023-04-28T04:55:12.500Z,3.22
2023-04-28T04:56:12.483Z,3.24
2023-04-28T04:57:12.481Z,3.27
2023-04-28T04:58:12.458Z,3.32
2023-04-28T04:59:12.477Z,3.38
2023-04-28T05:00:12.427Z,3.44
2023-04-28T05:01:12.437Z,3.48
2023-04-28T05:02:12.556Z,3.51
2023-04-28T05:03:12.417Z,3.55
2023-04-28T05:04:12.571Z,3.59
2023-04-28T05:05:21.481Z,3.63
2023-04-28T05:06:12.356Z,3.68
2023-04-28T05:07:12.414Z,3.76
2023-04-28T05:08:12.396Z,3.83
2023-04-28T05:09:12.380Z,3.90
2023-04-28T05:10:12.309Z,3.96
2023-04-28T05:11:12.293Z,4.01
2023-04-28T05:12:12.266Z,4.07
2023-04-28T05:13:12.279Z,4.14
2023-04-28T05:14:12.286Z,4.24
2023-04-28T05:15:12.242Z,4.34
2023-04-28T05:16:12.267Z,4.42
2023-04-28T05:17:12.200Z,4.47
2023-04-28T05:18:12.220Z,4.50
2023-04-28T05:19:12.196Z,4.53
2023-04-28T05:20:12.939Z,4.56
2023-04-28T05:21:12.223Z,4.59
2023-04-28T05:22:12.222Z,4.64
2023-04-28T05:23:12.170Z,4.70
2023-04-28T05:24:12.244Z,4.77
2023-04-28T05:25:12.160Z,4.84
2023-04-28T05:26:12.105Z,4.92
2023-04-28T05:27:12.094Z,5.00
2023-04-28T05:28:12.089Z,5.06
2023-04-28T05:29:12.039Z,5.12
2023-04-28T05:30:12.052Z,5.18
2023-04-28T05:31:12.084Z,5.24
2023-04-28T05:32:12.142Z,5.31
2023-04-28T05:33:12.196Z,5.39
2023-04-28T05:34:11.987Z,5.45
2023-04-28T05:35:11.990Z,5.50
2023-04-28T05:36:11.981Z,5.52
2023-04-28T05:37:11.974Z,5.53
2023-04-28T05:38:12.041Z,5.55
2023-04-28T05:39:11.937Z,5.57
2023-04-28T05:40:11.941Z,5.59
2023-04-28T05:41:11.927Z,5.60
2023-04-28T05:42:11.887Z,5.63
2023-04-28T05:43:11.991Z,5.67
2023-04-28T05:44:11.894Z,5.73
2023-04-28T05:45:11.834Z,5.77
2023-04-28T05:46:28.512Z,5.83
2023-04-28T05:47:11.801Z,5.89
2023-04-28T05:48:11.847Z,5.95
2023-04-28T05:49:11.838Z,6.02
2023-04-28T05:50:11.780Z,6.10
2023-04-28T05:51:11.763Z,6.17
2023-04-28T05:52:11.743Z,6.23
2023-04-28T05:53:11.763Z,6.31
2023-04-28T05:54:11.703Z,6.38
2023-04-28T05:55:11.700Z,6.46
2023-04-28T05:56:11.713Z,6.54
2023-04-28T05:57:11.672Z,6.61
2023-04-28T05:58:11.654Z,6.68
2023-04-28T05:59:11.670Z,6.74
2023-04-28T06:00:11.654Z,6.77
2023-04-28T06:01:11.669Z,6.81
2023-04-28T06:02:11.692Z,6.84
2023-04-28T06:03:11.837Z,6.89
2023-04-28T06:04:11.908Z,6.95
2023-04-28T06:05:11.738Z,7.03
2023-04-28T06:06:11.758Z,7.11
2023-04-28T06:07:11.581Z,7.20
2023-04-28T06:08:11.560Z,7.29
2023-04-28T06:09:11.534Z,7.38
2023-04-28T06:10:11.535Z,7.49
2023-04-28T06:11:11.513Z,7.61
2023-04-28T06:12:11.501Z,7.72
2023-04-28T06:13:12.659Z,7.81
2023-04-28T06:14:11.464Z,7.89
2023-04-28T06:15:11.457Z,8.00
2023-04-28T06:16:11.487Z,8.10
2023-04-28T06:17:11.420Z,8.18
2023-04-28T06:18:11.407Z,8.27
2023-04-28T06:19:11.417Z,8.38
2023-04-28T06:20:11.380Z,8.46
2023-04-28T06:21:11.403Z,8.51
2023-04-28T06:22:11.364Z,8.54
2023-04-28T06:23:11.307Z,8.55
2023-04-28T06:24:11.315Z,8.54
2023-04-28T06:25:11.316Z,8.53
2023-04-28T06:26:11.310Z,8.54
2023-04-28T06:27:11.287Z,8.57
2023-04-28T06:28:11.242Z,8.63
2023-04-28T06:29:11.310Z,8.69
2023-04-28T06:30:11.232Z,8.73
2023-04-28T06:31:11.562Z,8.72
2023-04-28T06:32:11.223Z,8.69
2023-04-28T06:33:11.245Z,8.67
2023-04-28T06:34:11.186Z,8.62
2023-04-28T06:35:11.150Z,8.59
2023-04-28T06:36:11.133Z,8.62
2023-04-28T06:37:11.147Z,8.68
2023-04-28T06:38:11.136Z,8.71
2023-04-28T06:39:11.102Z,8.73
2023-04-28T06:40:11.102Z,8.74
2023-04-28T06:41:11.073Z,8.73
2023-04-28T06:42:11.084Z,8.74
2023-04-28T06:43:11.097Z,8.73
2023-04-28T06:44:11.048Z,8.72
2023-04-28T06:45:11.086Z,8.73
2023-04-28T06:46:11.057Z,8.74
2023-04-28T06:47:11.020Z,8.76
2023-04-28T06:48:11.046Z,8.75
2023-04-28T06:49:10.988Z,8.72
2023-04-28T06:50:10.951Z,8.68
2023-04-28T06:51:10.961Z,8.65
2023-04-28T06:52:10.921Z,8.63
2023-04-28T06:53:10.993Z,8.62
2023-04-28T06:54:10.956Z,8.63
2023-04-28T06:55:10.913Z,8.63
2023-04-28T06:56:11.774Z,8.65
2023-04-28T06:57:10.873Z,8.70
2023-04-28T06:58:10.880Z,8.75
2023-04-28T06:59:10.841Z,8.78
2023-04-28T07:00:10.866Z,8.81
2023-04-28T07:01:10.846Z,8.85
2023-04-28T07:02:10.879Z,8.87
2023-04-28T07:03:10.943Z,8.86
2023-04-28T07:04:10.868Z,8.90
2023-04-28T07:05:10.792Z,8.96
2023-04-28T07:06:10.779Z,9.05
2023-04-28T07:07:10.751Z,9.14
2023-04-28T07:08:10.729Z,9.22
2023-04-28T07:09:10.709Z,9.30
2023-04-28T07:10:10.695Z,9.38
2023-04-28T07:11:10.701Z,9.47
2023-04-28T07:12:10.681Z,9.56
2023-04-28T07:13:10.642Z,9.63
2023-04-28T07:14:10.648Z,9.67
2023-04-28T07:15:10.644Z,9.71
2023-04-28T07:16:10.638Z,9.74
2023-04-28T07:17:10.607Z,9.79
2023-04-28T07:18:10.623Z,9.82
2023-04-28T07:19:10.583Z,9.77
2023-04-28T07:20:10.575Z,9.74
2023-04-28T07:21:10.552Z,9.79
2023-04-28T07:22:10.539Z,9.88
2023-04-28T07:23:10.560Z,9.95
2023-04-28T07:24:10.574Z,9.94
2023-04-28T07:25:10.522Z,9.92
2023-04-28T07:26:10.840Z,9.97
2023-04-28T07:27:10.464Z,10.07
2023-04-28T07:28:10.452Z,10.18
2023-04-28T07:29:10.431Z,10.29
2023-04-28T07:30:26.046Z,10.40
2023-04-28T07:31:10.414Z,10.50
2023-04-28T07:32:10.453Z,10.61
2023-04-28T07:33:10.393Z,10.72
2023-04-28T07:34:10.505Z,10.81
2023-04-28T07:35:10.372Z,10.88
2023-04-28T07:36:10.357Z,10.93
2023-04-28T07:37:10.323Z,10.98
2023-04-28T07:38:10.328Z,11.05
2023-04-28T07:39:10.307Z,11.13
2023-04-28T07:40:10.298Z,11.15
2023-04-28T07:41:11.318Z,11.07
2023-04-28T07:42:10.264Z,10.95
2023-04-28T07:43:10.256Z,10.87
2023-04-28T07:44:10.535Z,10.81
2023-04-28T07:45:10.383Z,10.73
2023-04-28T07:46:10.449Z,10.70
2023-04-28T07:47:10.252Z,10.77
2023-04-28T07:48:10.516Z,10.87
2023-04-28T07:49:10.175Z,10.96
2023-04-28T07:50:10.258Z,10.96
2023-04-28T07:51:10.395Z,10.91
2023-04-28T07:52:10.519Z,10.92
2023-04-28T07:53:10.443Z,10.96
2023-04-28T07:54:10.105Z,11.03
2023-04-28T07:55:10.078Z,11.16
2023-04-28T07:56:10.489Z,11.30
2023-04-28T07:57:10.255Z,11.43
2023-04-28T07:58:10.143Z,11.56
2023-04-28T07:59:10.411Z,11.63
2023-04-28T08:00:10.037Z,11.67
2023-04-28T08:01:10.055Z,11.72
2023-04-28T08:02:10.310Z,11.76
2023-04-28T08:03:10.297Z,11.83
2023-04-28T08:04:10.684Z,11.94
2023-04-28T08:05:10.517Z,12.08
2023-04-28T08:06:10.170Z,12.13
2023-04-28T08:07:09.980Z,12.15
2023-04-28T08:08:09.925Z,12.18
2023-04-28T08:09:09.941Z,12.26
2023-04-28T08:10:10.019Z,12.35
2023-04-28T08:11:09.863Z,12.48
2023-04-28T08:12:10.100Z,12.64
2023-04-28T08:13:10.016Z,12.82
2023-04-28T08:14:09.927Z,12.95
2023-04-28T08:15:10.017Z,13.04
2023-04-28T08:16:09.884Z,13.13
2023-04-28T08:17:09.906Z,13.18
2023-04-28T08:18:10.568Z,13.18
2023-04-28T08:19:10.815Z,13.21
2023-04-28T08:20:09.840Z,13.27
2023-04-28T08:21:11.500Z,13.27
2023-04-28T08:22:09.734Z,13.24
2023-04-28T08:23:09.775Z,13.23
2023-04-28T08:24:09.697Z,13.23
2023-04-28T08:25:09.666Z,13.16
2023-04-28T08:26:09.657Z,13.11
2023-04-28T08:27:09.676Z,13.18
2023-04-28T08:28:09.654Z,13.29
2023-04-28T08:29:09.635Z,13.43
2023-04-28T08:30:09.644Z,13.63
2023-04-28T08:31:09.654Z,13.81
2023-04-28T08:32:09.586Z,13.89
2023-04-28T08:33:09.592Z,13.81
2023-04-28T08:34:09.547Z,13.73
2023-04-28T08:35:09.640Z,13.69
2023-04-28T08:36:09.524Z,13.63
2023-04-28T08:37:09.640Z,13.63
2023-04-28T08:38:09.516Z,13.72
2023-04-28T08:39:10.746Z,13.82
2023-04-28T08:40:09.594Z,13.89
2023-04-28T08:41:09.493Z,13.93
2023-04-28T08:42:09.566Z,13.87
2023-04-28T08:43:09.497Z,13.86
2023-04-28T08:44:09.548Z,14.00
2023-04-28T08:45:09.413Z,14.16
2023-04-28T08:46:09.415Z,14.28
2023-04-28T08:47:09.452Z,14.40
2023-04-28T08:48:09.408Z,14.34
2023-04-28T08:49:09.380Z,14.27
2023-04-28T08:50:09.471Z,14.27
2023-04-28T08:51:09.357Z,14.18
2023-04-28T08:52:09.356Z,14.11
2023-04-28T08:53:09.368Z,14.23
2023-04-28T08:55:09.320Z,14.48
2023-04-28T08:56:09.321Z,14.63
2023-04-28T08:57:09.327Z,14.75
2023-04-28T08:58:09.448Z,14.80
2023-04-28T08:59:09.255Z,14.83
2023-04-28T09:00:09.225Z,14.86
2023-04-28T09:01:09.193Z,14.86
2023-04-28T09:02:09.390Z,14.79
2023-04-28T09:03:09.367Z,14.78
2023-04-28T09:04:10.700Z,14.90
2023-04-28T09:05:09.372Z,14.98
2023-04-28T09:06:09.145Z,15.05
2023-04-28T09:07:09.127Z,15.02
2023-04-28T09:08:09.119Z,14.83
2023-04-28T09:09:09.118Z,14.71
2023-04-28T09:10:09.099Z,14.67
2023-04-28T09:11:09.090Z,14.71
2023-04-28T09:12:09.122Z,14.77
2023-04-28T09:13:09.039Z,14.68
2023-04-28T09:14:09.030Z,14.57
2023-04-28T09:15:09.038Z,14.50
2023-04-28T09:16:09.032Z,14.55
2023-04-28T09:17:08.992Z,14.63
2023-04-28T09:18:09.054Z,14.68
2023-04-28T09:19:08.953Z,14.75
2023-04-28T09:20:08.961Z,14.80
2023-04-28T09:21:09.030Z,14.79
2023-04-28T09:22:24.583Z,14.69
2023-04-28T09:23:08.896Z,14.64
2023-04-28T09:24:09.018Z,14.73
2023-04-28T09:25:08.895Z,14.75
2023-04-28T09:26:08.891Z,14.67
2023-04-28T09:27:08.890Z,14.66
2023-04-28T09:28:08.873Z,14.75
2023-04-28T09:29:09.026Z,14.92
2023-04-28T09:30:08.830Z,15.07
2023-04-28T09:31:08.789Z,15.01
2023-04-28T09:32:08.887Z,14.99
2023-04-28T09:33:11.195Z,15.18
2023-04-28T09:34:08.773Z,15.46
2023-04-28T09:35:08.893Z,15.74
2023-04-28T09:36:08.726Z,15.80
2023-04-28T09:37:08.734Z,15.77
2023-04-28T09:38:09.022Z,15.82
2023-04-28T09:39:08.765Z,15.87
2023-04-28T09:40:08.708Z,15.84
2023-04-28T09:41:08.717Z,15.77
2023-04-28T09:42:08.657Z,15.72
2023-04-28T09:43:18.938Z,15.77
2023-04-28T09:44:08.670Z,15.92
2023-04-28T09:45:08.647Z,16.13
2023-04-28T09:46:08.662Z,16.31
2023-04-28T09:47:08.586Z,16.50
2023-04-28T09:48:08.655Z,16.44
2023-04-28T09:49:08.569Z,16.32
2023-04-28T09:50:08.555Z,16.37
2023-04-28T09:51:09.531Z,16.52
2023-04-28T09:52:08.517Z,16.55
2023-04-28T09:53:08.547Z,16.39
2023-04-28T09:54:08.519Z,16.04
2023-04-28T09:55:08.550Z,15.77
2023-04-28T09:56:08.473Z,15.77
2023-04-28T09:57:08.697Z,15.82
2023-04-28T09:58:08.474Z,15.59
2023-04-28T09:59:08.443Z,15.42
2023-04-28T10:00:08.446Z,15.51
2023-04-28T10:01:08.465Z,15.46
2023-04-28T10:02:22.568Z,15.33
2023-04-28T10:03:08.536Z,15.29
2023-04-28T10:04:08.506Z,15.28
2023-04-28T10:05:08.571Z,15.31
2023-04-28T10:06:08.404Z,15.50
2023-04-28T10:07:08.342Z,15.73
2023-04-28T10:08:08.317Z,15.68
2023-04-28T10:09:08.318Z,15.51
2023-04-28T10:10:08.327Z,15.45
2023-04-28T10:11:08.298Z,15.36
2023-04-28T10:12:08.266Z,15.32
2023-04-28T10:13:08.277Z,15.38
2023-04-28T10:14:08.278Z,15.42
2023-04-28T10:15:08.220Z,15.32
2023-04-28T10:16:08.306Z,15.07
2023-04-28T10:17:08.199Z,14.92
2023-04-28T10:18:08.214Z,14.94
2023-04-28T10:19:08.170Z,15.15
2023-04-28T10:20:08.207Z,15.33
2023-04-28T10:21:08.183Z,15.32
2023-04-28T10:22:08.145Z,15.30
2023-04-28T10:23:08.160Z,15.22
2023-04-28T10:24:08.111Z,15.14
2023-04-28T10:25:08.085Z,15.24
2023-04-28T10:26:08.083Z,15.47
2023-04-28T10:27:08.111Z,15.64
2023-04-28T10:28:08.091Z,15.72
2023-04-28T10:29:08.070Z,15.82
2023-04-28T10:30:15.840Z,15.89
2023-04-28T10:31:08.041Z,15.99
2023-04-28T10:32:07.994Z,16.15
2023-04-28T10:33:08.189Z,16.33
2023-04-28T10:34:07.976Z,16.51
2023-04-28T10:35:08.016Z,16.68
2023-04-28T10:36:14.241Z,16.91
2023-04-28T10:37:07.989Z,17.19
2023-04-28T10:38:07.952Z,17.38
2023-04-28T10:39:07.987Z,17.37
2023-04-28T10:40:08.400Z,17.31
2023-04-28T10:41:07.896Z,17.24
2023-04-28T10:42:07.862Z,17.19
2023-04-28T10:43:07.932Z,17.23
2023-04-28T10:44:07.994Z,17.39
2023-04-28T10:45:07.876Z,17.59
2023-04-28T10:46:07.985Z,17.86
2023-04-28T10:47:07.855Z,18.22
2023-04-28T10:48:07.863Z,18.54
2023-04-28T10:49:07.896Z,18.66
2023-04-28T10:50:07.813Z,18.50
2023-04-28T10:51:07.890Z,18.12
2023-04-28T10:52:07.779Z,17.69
2023-04-28T10:53:07.807Z,17.60
2023-04-28T10:54:07.937Z,17.82
2023-04-28T10:55:19.411Z,18.03
2023-04-28T10:56:07.758Z,18.11
2023-04-28T10:57:07.683Z,17.85
2023-04-28T10:58:07.710Z,17.57
2023-04-28T10:59:07.688Z,17.48
2023-04-28T11:00:07.644Z,17.47
2023-04-28T11:01:07.734Z,17.53
2023-04-28T11:02:07.661Z,17.62
2023-04-28T11:03:07.755Z,17.75
2023-04-28T11:04:08.006Z,17.67
2023-04-28T11:05:07.756Z,17.47
2023-04-28T11:06:07.603Z,17.29
2023-04-28T11:07:07.683Z,17.01
2023-04-28T11:08:07.525Z,16.66
2023-04-28T11:09:07.509Z,16.42
2023-04-28T11:10:07.489Z,16.30
2023-04-28T11:11:07.511Z,16.17
2023-04-28T11:12:07.481Z,16.06
2023-04-28T11:13:07.516Z,16.05
2023-04-28T11:14:07.460Z,15.97
2023-04-28T11:15:07.443Z,15.88
2023-04-28T11:16:07.450Z,15.89
2023-04-28T11:17:07.456Z,15.96
2023-04-28T11:18:07.497Z,16.07
2023-04-28T11:19:07.409Z,16.18
2023-04-28T11:20:07.385Z,16.24
2023-04-28T11:21:07.381Z,16.14
2023-04-28T11:22:07.417Z,15.97
2023-04-28T11:23:07.378Z,15.84
2023-04-28T11:24:07.358Z,15.73
2023-04-28T11:25:07.301Z,15.62
2023-04-28T11:26:07.322Z,15.54
2023-04-28T11:27:07.290Z,15.47
2023-04-28T11:28:07.273Z,15.47
2023-04-28T11:29:07.271Z,15.58
2023-04-28T11:30:07.257Z,15.71
2023-04-28T11:31:07.237Z,15.84
2023-04-28T11:32:07.365Z,15.96
2023-04-28T11:33:07.305Z,16.01
2023-04-28T11:34:07.204Z,15.95
2023-04-28T11:35:07.217Z,15.96
2023-04-28T11:36:07.259Z,16.02
2023-04-28T11:37:07.226Z,16.12
2023-04-28T11:38:07.195Z,16.30
2023-04-28T11:39:07.165Z,16.50
2023-04-28T11:40:07.137Z,16.66
2023-04-28T11:41:07.093Z,16.80
2023-04-28T11:42:07.128Z,16.87
2023-04-28T11:43:07.134Z,16.89
2023-04-28T11:44:07.052Z,16.84
2023-04-28T11:45:07.050Z,16.77
2023-04-28T11:46:07.050Z,16.77
2023-04-28T11:47:07.343Z,16.86
2023-04-28T11:48:07.012Z,16.90
2023-04-28T11:49:07.015Z,16.79
2023-04-28T11:50:06.996Z,16.62
2023-04-28T11:51:06.999Z,16.56
2023-04-28T11:52:06.973Z,16.59
2023-04-28T11:53:06.955Z,16.61
2023-04-28T11:54:06.949Z,16.62
2023-04-28T11:55:06.927Z,16.53
2023-04-28T11:56:06.913Z,16.42
2023-04-28T11:57:06.903Z,16.36
2023-04-28T11:58:06.879Z,16.30
2023-04-28T11:59:06.872Z,16.18
2023-04-28T12:00:06.860Z,16.07
2023-04-28T12:01:06.818Z,15.99
2023-04-28T12:02:06.887Z,15.99
2023-04-28T12:03:06.939Z,16.15
2023-04-28T12:04:06.829Z,16.39
2023-04-28T12:05:06.993Z,16.53
2023-04-28T12:06:06.758Z,16.59
2023-04-28T12:07:06.782Z,16.67
2023-04-28T12:08:06.741Z,16.70
2023-04-28T12:09:06.724Z,16.64
2023-04-28T12:10:06.712Z,16.44
2023-04-28T12:11:06.771Z,16.17
2023-04-28T12:12:06.728Z,15.92
2023-04-28T12:13:06.750Z,15.93
2023-04-28T12:14:06.665Z,16.24
2023-04-28T12:15:06.651Z,16.72
2023-04-28T12:16:06.667Z,17.23
2023-04-28T12:17:06.648Z,17.74
2023-04-28T12:18:06.681Z,18.23
2023-04-28T12:19:06.616Z,18.59
2023-04-28T12:20:06.576Z,18.50
2023-04-28T12:21:06.615Z,18.07
2023-04-28T12:22:06.567Z,17.69
2023-04-28T12:23:06.571Z,17.42
2023-04-28T12:24:06.513Z,17.29
2023-04-28T12:25:06.531Z,17.34
2023-04-28T12:26:06.480Z,17.30
2023-04-28T12:27:06.481Z,17.04
2023-04-28T12:28:06.486Z,16.75
2023-04-28T12:29:06.467Z,16.67
2023-04-28T12:30:06.445Z,16.83
2023-04-28T12:31:06.465Z,17.13
2023-04-28T12:32:06.399Z,17.43
2023-04-28T12:33:06.468Z,17.70
2023-04-28T12:34:06.386Z,17.88
2023-04-28T12:35:06.395Z,17.93
2023-04-28T12:36:06.364Z,17.96
2023-04-28T12:37:06.376Z,17.93
2023-04-28T12:38:06.368Z,17.87
2023-04-28T12:39:06.337Z,17.75
2023-04-28T12:40:06.319Z,17.53
2023-04-28T12:41:06.311Z,17.22
2023-04-28T12:42:06.304Z,16.96
2023-04-28T12:43:06.287Z,16.74
2023-04-28T12:44:06.260Z,16.52
2023-04-28T12:45:06.275Z,16.38
2023-04-28T12:46:06.284Z,16.26
2023-04-28T12:47:06.205Z,16.16
2023-04-28T12:48:06.228Z,16.08
2023-04-28T12:49:06.214Z,16.08
2023-04-28T12:50:06.270Z,16.21
2023-04-28T12:51:06.179Z,16.34
2023-04-28T12:52:06.163Z,16.41
2023-04-28T12:53:06.133Z,16.42
2023-04-28T12:54:06.115Z,16.40
2023-04-28T12:55:06.131Z,16.41
2023-04-28T12:56:06.089Z,16.43
2023-04-28T12:57:06.085Z,16.41
2023-04-28T12:58:06.090Z,16.28
2023-04-28T12:59:06.085Z,16.17
2023-04-28T13:00:06.107Z,16.10
2023-04-28T13:01:06.041Z,15.99
2023-04-28T13:02:06.091Z,15.91
2023-04-28T13:03:06.172Z,15.88
2023-04-28T13:04:06.228Z,15.90
2023-04-28T13:05:06.018Z,15.95
2023-04-28T13:06:05.975Z,16.01
2023-04-28T13:07:05.929Z,16.13
2023-04-28T13:08:05.969Z,16.20